createdAt,value
2023-05-04T00:00:27.296Z,3.10
2023-05-04T00:01:27.427Z,2.40
2023-05-04T00:02:27.372Z,3.30
2023-05-04T00:03:27.541Z,2.20
2023-05-04T00:04:28.455Z,3.00
2023-05-04T00:05:28.315Z,2.40
2023-05-04T00:06:28.296Z,2.90
2023-05-04T00:07:27.180Z,2.80
2023-05-04T00:08:28.285Z,2.90
2023-05-04T00:09:27.207Z,3.00
2023-05-04T00:10:27.295Z,2.90
2023-05-04T00:11:28.128Z,2.90
2023-05-04T00:12:28.406Z,2.60
2023-05-04T00:13:28.168Z,2.60
2023-05-04T00:14:28.247Z,2.90
2023-05-04T00:15:28.155Z,3.00
2023-05-04T00:16:27.378Z,2.20
2023-05-04T00:17:28.152Z,3.30
2023-05-04T00:18:28.200Z,2.60
2023-05-04T00:19:27.146Z,2.60
2023-05-04T00:20:27.192Z,2.40
2023-05-04T00:21:28.073Z,2.10
2023-05-04T00:22:28.173Z,2.50
2023-05-04T00:23:27.093Z,3.30
2023-05-04T00:24:28.028Z,3.60
2023-05-04T00:25:28.144Z,2.30
2023-05-04T00:26:26.955Z,2.40
2023-05-04T00:27:27.130Z,3.40
2023-05-04T00:28:26.975Z,2.50
2023-05-04T00:29:27.072Z,2.80
2023-05-04T00:30:27.096Z,3.10
2023-05-04T00:31:28.117Z,2.70
2023-05-04T00:32:28.087Z,2.60
2023-05-04T00:33:27.057Z,1.90
2023-05-04T00:34:28.019Z,2.50
2023-05-04T00:35:28.008Z,2.20
2023-05-04T00:36:28.071Z,2.10
2023-05-04T00:37:26.977Z,3.10
2023-05-04T00:38:26.976Z,2.40
2023-05-04T00:39:27.897Z,2.20
2023-05-04T00:40:26.968Z,2.90
2023-05-04T00:41:26.826Z,3.00
2023-05-04T00:42:27.130Z,2.90
2023-05-04T00:43:26.802Z,2.60
2023-05-04T00:44:26.937Z,2.10
2023-05-04T00:45:26.771Z,2.70
2023-05-04T00:46:28.081Z,3.20
2023-05-04T00:47:26.858Z,2.30
2023-05-04T00:48:27.937Z,3.20
2023-05-04T00:49:27.805Z,2.40
2023-05-04T00:50:27.858Z,2.50
2023-05-04T00:51:27.763Z,2.50
2023-05-04T00:52:27.906Z,2.20
2023-05-04T00:53:26.830Z,2.60
2023-05-04T00:54:26.632Z,2.50
2023-05-04T00:55:27.818Z,2.80
2023-05-04T00:56:26.687Z,3.10
2023-05-04T00:57:27.809Z,3.00
2023-05-04T00:58:27.737Z,2.80
2023-05-04T00:59:27.837Z,2.80
2023-05-04T01:00:26.693Z,2.50
2023-05-04T01:01:27.793Z,2.50
2023-05-04T01:02:26.736Z,2.80
2023-05-04T01:03:27.851Z,2.20
2023-05-04T01:04:26.683Z,2.40
2023-05-04T01:05:27.741Z,2.70
2023-05-04T01:06:26.649Z,2.40
2023-05-04T01:07:26.771Z,2.80
2023-05-04T01:08:27.787Z,2.20
2023-05-04T01:09:27.571Z,2.70
2023-05-04T01:10:26.617Z,2.90
2023-05-04T01:11:27.486Z,2.80
2023-05-04T01:12:26.650Z,2.70
2023-05-04T01:13:26.603Z,2.10
2023-05-04T01:14:26.705Z,2.90
2023-05-04T01:15:26.489Z,2.50
2023-05-04T01:16:26.673Z,2.60
2023-05-04T01:17:26.537Z,2.00
2023-05-04T01:18:26.577Z,3.10
2023-05-04T01:19:26.548Z,2.40
2023-05-04T01:20:27.627Z,2.60
2023-05-04T01:21:26.438Z,2.80
2023-05-04T01:22:26.544Z,2.30
2023-05-04T01:23:26.448Z,2.30
2023-05-04T01:24:26.552Z,2.50
2023-05-04T01:25:27.490Z,2.50
2023-05-04T01:26:27.339Z,2.80
2023-05-04T01:27:27.529Z,2.10
2023-05-04T01:28:27.332Z,3.00
2023-05-04T01:29:27.500Z,2.70
2023-05-04T01:30:26.391Z,2.70
2023-05-04T01:31:26.591Z,2.30
2023-05-04T01:32:26.347Z,2.80
2023-05-04T01:33:26.469Z,2.90
2023-05-04T01:34:26.377Z,2.60
2023-05-04T01:35:27.409Z,2.70
2023-05-04T01:36:27.386Z,3.20
2023-05-04T01:37:26.408Z,2.80
2023-05-04T01:38:27.423Z,3.60
2023-05-04T01:39:26.138Z,3.10
2023-05-04T01:40:26.357Z,3.30
2023-05-04T01:41:26.166Z,2.90
2023-05-04T01:42:27.419Z,3.20
2023-05-04T01:43:27.126Z,2.70
2023-05-04T01:44:27.363Z,2.80
2023-05-04T01:45:27.117Z,2.90
2023-05-04T01:46:27.346Z,2.40
2023-05-04T01:47:26.274Z,3.00
2023-05-04T01:48:28.393Z,2.70
2023-05-04T01:49:27.197Z,2.20
2023-05-04T01:50:27.182Z,3.20
2023-05-04T01:51:27.243Z,2.90
2023-05-04T01:52:26.204Z,3.30
2023-05-04T01:53:27.154Z,2.50
2023-05-04T01:54:25.975Z,2.60
2023-05-04T01:55:26.123Z,2.40
2023-05-04T01:56:26.123Z,2.90
2023-05-04T01:57:26.156Z,3.00
2023-05-04T01:58:26.015Z,3.10
2023-05-04T01:59:27.272Z,2.60
2023-05-04T02:00:26.984Z,4.10
2023-05-04T02:01:26.173Z,3.20
2023-05-04T02:02:27.080Z,2.90
2023-05-04T02:03:27.160Z,2.80
2023-05-04T02:04:27.032Z,3.20
2023-05-04T02:05:26.089Z,3.00
2023-05-04T02:06:27.072Z,3.40
2023-05-04T02:07:26.055Z,2.80
2023-05-04T02:08:25.972Z,3.10
2023-05-04T02:09:27.012Z,3.10
2023-05-04T02:10:26.955Z,3.40
2023-05-04T02:11:26.791Z,2.80
2023-05-04T02:12:27.098Z,2.30
2023-05-04T02:13:26.882Z,2.90
2023-05-04T02:14:26.963Z,2.90
2023-05-04T02:15:26.835Z,3.00
2023-05-04T02:16:27.109Z,3.30
2023-05-04T02:17:25.840Z,2.70
2023-05-04T02:18:25.984Z,2.30
2023-05-04T02:19:26.905Z,3.00
2023-05-04T02:20:26.962Z,3.60
2023-05-04T02:21:25.803Z,2.90
2023-05-04T02:22:25.956Z,3.20
2023-05-04T02:23:25.843Z,3.00
2023-05-04T02:24:26.825Z,3.50
2023-05-04T02:25:26.855Z,2.80
2023-05-04T02:26:26.743Z,2.50
2023-05-04T02:27:25.809Z,2.90
2023-05-04T02:28:25.634Z,2.90
2023-05-04T02:29:26.844Z,3.10
2023-05-04T02:30:25.804Z,3.30
2023-05-04T02:31:25.822Z,2.40
2023-05-04T02:32:25.776Z,3.50
2023-05-04T02:33:25.882Z,3.20
2023-05-04T02:34:25.766Z,2.90
2023-05-04T02:35:25.784Z,2.70
2023-05-04T02:36:25.704Z,3.60
2023-05-04T02:37:25.742Z,3.70
2023-05-04T02:38:25.766Z,3.30
2023-05-04T02:39:25.493Z,3.30
2023-05-04T02:40:25.675Z,2.70
2023-05-04T02:41:25.605Z,3.40
2023-05-04T02:42:25.785Z,3.60
2023-05-04T02:43:25.569Z,3.80
2023-05-04T02:44:25.811Z,3.20
2023-05-04T02:45:25.575Z,3.00
2023-05-04T02:46:25.816Z,2.50
2023-05-04T02:47:25.530Z,3.30
2023-05-04T02:48:26.631Z,3.20
2023-05-04T02:49:26.557Z,4.30
2023-05-04T02:50:26.625Z,2.40
2023-05-04T02:51:26.485Z,3.30
2023-05-04T02:52:26.828Z,2.90
2023-05-04T02:53:25.497Z,3.10
2023-05-04T02:54:25.319Z,2.40
2023-05-04T02:55:25.555Z,3.20
2023-05-04T02:56:25.466Z,2.70
2023-05-04T02:57:25.504Z,3.00
2023-05-04T02:58:26.488Z,2.80
2023-05-04T02:59:25.498Z,2.60
2023-05-04T03:00:25.388Z,3.10
2023-05-04T03:01:26.625Z,2.80
2023-05-04T03:02:26.418Z,2.50
2023-05-04T03:03:26.658Z,2.80
2023-05-04T03:04:26.421Z,2.90
2023-05-04T03:05:25.420Z,3.60
2023-05-04T03:06:25.386Z,3.20
2023-05-04T03:07:26.365Z,2.30
2023-05-04T03:08:26.328Z,3.20
2023-05-04T03:09:26.327Z,3.10
2023-05-04T03:10:26.428Z,3.70
2023-05-04T03:11:26.399Z,3.50
2023-05-04T03:12:26.432Z,2.70
2023-05-04T03:13:26.189Z,3.00
2023-05-04T03:14:26.348Z,2.50
2023-05-04T03:15:26.237Z,3.30
2023-05-04T03:16:26.398Z,3.10
2023-05-04T03:17:26.308Z,2.80
2023-05-04T03:18:26.300Z,3.10
2023-05-04T03:19:26.308Z,3.60
2023-05-04T03:20:26.360Z,3.00
2023-05-04T03:21:26.261Z,3.10
2023-05-04T03:22:26.379Z,2.50
2023-05-04T03:23:26.189Z,2.90
2023-05-04T03:24:26.052Z,2.70
2023-05-04T03:25:26.242Z,2.50
2023-05-04T03:26:26.148Z,2.50
2023-05-04T03:27:26.223Z,3.10
2023-05-04T03:28:26.059Z,3.00
2023-05-04T03:29:26.208Z,3.00
2023-05-04T03:30:25.037Z,2.60
2023-05-04T03:31:25.260Z,2.60
2023-05-04T03:32:25.934Z,2.90
2023-05-04T03:33:26.137Z,2.90
2023-05-04T03:34:25.057Z,2.60
2023-05-04T03:35:26.167Z,2.90
2023-05-04T03:36:26.006Z,3.00
2023-05-04T03:37:24.956Z,3.20
2023-05-04T03:38:25.112Z,2.50
2023-05-04T03:39:25.862Z,3.10
2023-05-04T03:40:26.146Z,2.90
2023-05-04T03:41:25.928Z,2.80
2023-05-04T03:42:25.056Z,3.30
2023-05-04T03:43:25.981Z,2.80
2023-05-04T03:44:26.001Z,3.10
2023-05-04T03:45:25.858Z,2.30
2023-05-04T03:46:26.133Z,2.80
2023-05-04T03:47:25.976Z,2.60
2023-05-04T03:48:25.019Z,3.00
2023-05-04T03:49:24.920Z,2.70
2023-05-04T03:50:24.967Z,3.50
2023-05-04T03:51:24.974Z,2.70
2023-05-04T03:52:24.953Z,2.30
2023-05-04T03:53:25.017Z,2.70
2023-05-04T03:54:24.973Z,2.60
2023-05-04T03:55:24.838Z,3.20
2023-05-04T03:56:24.838Z,2.50
2023-05-04T03:57:24.888Z,2.60
2023-05-04T03:58:24.908Z,2.80
2023-05-04T03:59:24.916Z,2.30
2023-05-04T04:00:24.815Z,2.60
2023-05-04T04:01:24.878Z,2.60
2023-05-04T04:02:24.883Z,2.00
2023-05-04T04:03:25.005Z,2.70
2023-05-04T04:04:24.847Z,2.00
2023-05-04T04:05:24.865Z,2.00
2023-05-04T04:06:24.778Z,2.40
2023-05-04T04:07:24.657Z,2.60
2023-05-04T04:08:24.690Z,2.50
2023-05-04T04:09:24.518Z,2.70
2023-05-04T04:10:24.826Z,2.60
2023-05-04T04:11:25.692Z,2.50
2023-05-04T04:12:24.702Z,2.90
2023-05-04T04:13:25.587Z,2.90
2023-05-04T04:14:24.740Z,3.00
2023-05-04T04:15:24.758Z,2.50
2023-05-04T04:16:23.908Z,2.10
2023-05-04T04:17:24.660Z,2.70
2023-05-04T04:18:24.652Z,3.40
2023-05-04T04:19:24.826Z,3.00
2023-05-04T04:20:23.798Z,2.50
2023-05-04T04:21:25.327Z,2.80
2023-05-04T04:22:24.744Z,2.50
2023-05-04T04:23:23.817Z,2.30
2023-05-04T04:24:24.508Z,2.40
2023-05-04T04:25:24.572Z,2.00
2023-05-04T04:26:23.757Z,2.30
2023-05-04T04:27:24.717Z,2.00
2023-05-04T04:28:24.491Z,2.60
2023-05-04T04:29:24.519Z,2.00
2023-05-04T04:30:24.377Z,1.90
2023-05-04T04:31:23.757Z,2.40
2023-05-04T04:32:25.370Z,2.20
2023-05-04T04:33:24.838Z,2.10
2023-05-04T04:34:24.388Z,2.30
2023-05-04T04:35:24.591Z,2.30
2023-05-04T04:36:24.447Z,2.60
2023-05-04T04:37:24.477Z,2.00
2023-05-04T04:38:23.686Z,2.10
2023-05-04T04:39:24.293Z,2.80
2023-05-04T04:40:24.401Z,2.80
2023-05-04T04:41:24.266Z,2.10
2023-05-04T04:42:25.052Z,2.10
2023-05-04T04:43:24.230Z,2.20
2023-05-04T04:44:24.426Z,2.70
2023-05-04T04:45:24.246Z,2.00
2023-05-04T04:46:23.559Z,2.50
2023-05-04T04:47:24.239Z,1.90
2023-05-04T04:48:24.408Z,2.20
2023-05-04T04:49:24.236Z,2.40
2023-05-04T04:50:24.404Z,2.90
2023-05-04T04:51:24.248Z,2.10
2023-05-04T04:52:24.007Z,2.00
2023-05-04T04:53:24.247Z,2.70
2023-05-04T04:54:24.116Z,2.40
2023-05-04T04:55:24.308Z,1.90
2023-05-04T04:56:23.456Z,3.00
2023-05-04T04:57:25.312Z,2.60
2023-05-04T04:58:24.897Z,2.60
2023-05-04T04:59:24.205Z,2.40
2023-05-04T05:00:24.964Z,2.70
2023-05-04T05:01:23.460Z,2.80
2023-05-04T05:02:24.734Z,3.20
2023-05-04T05:03:24.198Z,2.20
2023-05-04T05:04:23.373Z,2.70
2023-05-04T05:05:25.131Z,2.70
2023-05-04T05:06:24.363Z,3.20
2023-05-04T05:07:24.107Z,3.30
2023-05-04T05:08:24.697Z,2.40
2023-05-04T05:09:23.312Z,2.00
2023-05-04T05:10:24.747Z,3.20
2023-05-04T05:11:24.091Z,2.60
2023-05-04T05:12:25.379Z,3.10
2023-05-04T05:13:23.987Z,2.00
2023-05-04T05:14:24.099Z,2.60
2023-05-04T05:15:24.008Z,3.00
2023-05-04T05:16:24.689Z,2.30
2023-05-04T05:17:23.232Z,2.60
2023-05-04T05:18:23.288Z,2.20
2023-05-04T05:19:23.899Z,2.90
2023-05-04T05:20:24.577Z,2.90
2023-05-04T05:21:24.231Z,2.80
2023-05-04T05:22:24.570Z,2.20
2023-05-04T05:23:23.997Z,2.80
2023-05-04T05:24:24.510Z,2.00
2023-05-04T05:25:23.934Z,2.00
2023-05-04T05:26:24.754Z,3.20
2023-05-04T05:27:23.923Z,2.80
2023-05-04T05:28:24.512Z,2.50
2023-05-04T05:29:23.952Z,1.70
2023-05-04T05:30:24.656Z,2.40
2023-05-04T05:31:23.913Z,2.70
2023-05-04T05:32:24.534Z,3.10
2023-05-04T05:33:23.044Z,2.80
2023-05-04T05:34:24.483Z,1.90
2023-05-04T05:35:23.089Z,2.90
2023-05-04T05:36:24.515Z,2.90
2023-05-04T05:37:23.599Z,2.90
2023-05-04T05:38:24.209Z,2.60
2023-05-04T05:39:22.978Z,2.50
2023-05-04T05:40:25.244Z,3.00
2023-05-04T05:41:24.643Z,2.60
2023-05-04T05:42:24.591Z,3.00
2023-05-04T05:43:23.952Z,2.40
2023-05-04T05:44:23.033Z,2.50
2023-05-04T05:45:24.242Z,2.10
2023-05-04T05:46:24.051Z,2.90
2023-05-04T05:47:22.918Z,2.40
2023-05-04T05:48:23.682Z,2.30
2023-05-04T05:49:22.857Z,1.90
2023-05-04T05:50:24.735Z,2.20
2023-05-04T05:51:24.035Z,2.70
2023-05-04T05:52:22.930Z,2.30
2023-05-04T05:53:24.357Z,2.60
2023-05-04T05:54:23.890Z,2.50
2023-05-04T05:55:22.805Z,2.40
2023-05-04T05:56:24.140Z,2.10
2023-05-04T05:57:23.789Z,2.40
2023-05-04T05:58:22.789Z,1.90
2023-05-04T05:59:23.586Z,2.10
2023-05-04T06:00:22.772Z,2.00
2023-05-04T06:01:24.213Z,2.40
2023-05-04T06:02:22.919Z,2.30
2023-05-04T06:03:24.986Z,2.30
2023-05-04T06:04:24.460Z,1.90
2023-05-04T06:05:23.578Z,1.90
2023-05-04T06:06:22.741Z,2.10
2023-05-04T06:07:23.294Z,1.70
2023-05-04T06:08:23.498Z,2.00
2023-05-04T06:09:22.677Z,1.70
2023-05-04T06:10:24.347Z,2.50
2023-05-04T06:11:23.466Z,1.80
2023-05-04T06:12:23.480Z,1.90
2023-05-04T06:13:22.631Z,1.60
2023-05-04T06:14:24.242Z,2.40
2023-05-04T06:15:23.596Z,2.60
2023-05-04T06:16:22.610Z,2.10
2023-05-04T06:17:24.205Z,2.30
2023-05-04T06:18:23.428Z,3.10
2023-05-04T06:19:23.475Z,2.50
2023-05-04T06:20:22.566Z,1.50
2023-05-04T06:21:23.300Z,1.90
2023-05-04T06:22:22.563Z,2.30
2023-05-04T06:23:24.149Z,1.70
2023-05-04T06:24:23.437Z,2.50
2023-05-04T06:25:22.576Z,2.90
2023-05-04T06:26:23.148Z,3.50
2023-05-04T06:27:24.189Z,2.00
2023-05-04T06:28:23.109Z,2.30
2023-05-04T06:29:22.463Z,2.10
2023-05-04T06:30:23.316Z,2.30
2023-05-04T06:31:23.519Z,2.30
2023-05-04T06:32:22.416Z,2.20
2023-05-04T06:33:23.196Z,1.80
2023-05-04T06:34:23.106Z,2.30
2023-05-04T06:35:22.404Z,2.00
2023-05-04T06:36:23.253Z,2.40
2023-05-04T06:37:22.977Z,3.50
2023-05-04T06:38:22.356Z,2.50
2023-05-04T06:39:24.205Z,1.80
2023-05-04T06:40:23.097Z,2.60
2023-05-04T06:41:22.317Z,2.00
2023-05-04T06:42:23.772Z,2.20
2023-05-04T06:43:23.014Z,2.00
2023-05-04T06:44:22.292Z,2.10
2023-05-04T06:45:22.927Z,1.60
2023-05-04T06:46:22.712Z,2.20
2023-05-04T06:47:23.497Z,2.70
2023-05-04T06:48:22.250Z,2.00
2023-05-04T06:49:23.956Z,2.10
2023-05-04T06:50:24.095Z,2.30
2023-05-04T06:51:22.279Z,2.20
2023-05-04T06:52:24.198Z,2.10
2023-05-04T06:53:23.945Z,2.40
2023-05-04T06:54:22.156Z,2.70
2023-05-04T06:55:23.014Z,2.40
2023-05-04T06:56:22.820Z,2.10
2023-05-04T06:57:22.178Z,2.90
2023-05-04T06:58:24.095Z,2.50
2023-05-04T06:59:25.845Z,2.70
2023-05-04T07:00:22.098Z,2.00
2023-05-04T07:01:22.140Z,2.90
2023-05-04T07:02:23.032Z,2.90
2023-05-04T07:03:22.119Z,3.50
2023-05-04T07:04:23.064Z,2.00
2023-05-04T07:05:22.074Z,2.40
2023-05-04T07:06:23.822Z,3.40
2023-05-04T07:07:23.460Z,2.30
2023-05-04T07:08:22.074Z,1.80
2023-05-04T07:09:22.700Z,2.40
2023-05-04T07:10:22.048Z,2.90
2023-05-04T07:11:44.524Z,2.80
2023-05-04T07:12:23.303Z,2.00
2023-05-04T07:13:22.600Z,2.90
2023-05-04T07:14:21.988Z,2.30
2023-05-04T07:15:23.326Z,2.30
2023-05-04T07:16:22.804Z,2.70
2023-05-04T07:17:22.125Z,2.40
2023-05-04T07:18:23.515Z,2.60
2023-05-04T07:19:22.973Z,2.70
2023-05-04T07:20:25.679Z,2.60
2023-05-04T07:21:28.417Z,1.90
2023-05-04T07:22:22.461Z,2.60
2023-05-04T07:23:22.621Z,2.40
2023-05-04T07:24:22.560Z,2.70
2023-05-04T07:25:22.612Z,2.20
2023-05-04T07:26:22.450Z,2.70
2023-05-04T07:27:22.957Z,2.40
2023-05-04T07:28:22.518Z,3.20
2023-05-04T07:29:22.622Z,1.90
2023-05-04T07:30:21.804Z,2.80
2023-05-04T07:31:23.009Z,3.00
2023-05-04T07:32:21.923Z,2.50
2023-05-04T07:33:23.134Z,2.90
2023-05-04T07:34:30.198Z,2.50
2023-05-04T07:35:22.834Z,2.50
2023-05-04T07:36:22.548Z,2.60
2023-05-04T07:37:21.719Z,2.20
2023-05-04T07:38:22.558Z,2.80
2023-05-04T07:39:22.438Z,2.80
2023-05-04T07:40:21.705Z,2.00
2023-05-04T07:41:23.383Z,2.20
2023-05-04T07:42:22.785Z,2.70
2023-05-04T07:43:22.297Z,2.10
2023-05-04T07:44:21.696Z,2.00
2023-05-04T07:45:23.416Z,2.60
2023-05-04T07:46:22.491Z,2.40
2023-05-04T07:47:23.790Z,2.30
2023-05-04T07:48:24.594Z,1.40
2023-05-04T07:49:22.493Z,2.00
2023-05-04T07:50:22.429Z,2.20
2023-05-04T07:51:22.378Z,2.10
2023-05-04T07:52:21.700Z,1.90
2023-05-04T07:53:22.286Z,2.60
2023-05-04T07:54:22.782Z,1.90
2023-05-04T07:55:22.310Z,1.80
2023-05-04T07:56:22.172Z,2.10
2023-05-04T07:57:22.386Z,1.30
2023-05-04T07:58:22.128Z,2.50
2023-05-04T07:59:22.785Z,2.10
2023-05-04T08:00:22.509Z,1.90
2023-05-04T08:01:22.389Z,1.70
2023-05-04T08:02:22.259Z,2.10
2023-05-04T08:03:22.294Z,1.90
2023-05-04T08:04:22.484Z,2.20
2023-05-04T08:05:22.861Z,2.20
2023-05-04T08:06:22.378Z,2.00
2023-05-04T08:07:22.294Z,1.70
2023-05-04T08:08:22.127Z,1.80
2023-05-04T08:09:22.348Z,2.40
2023-05-04T08:10:22.248Z,1.80
2023-05-04T08:11:22.036Z,2.10
2023-05-04T08:12:22.300Z,2.10
2023-05-04T08:13:22.027Z,2.30
2023-05-04T08:14:22.458Z,1.70
2023-05-04T08:15:22.076Z,2.00
2023-05-04T08:16:22.237Z,2.10
2023-05-04T08:17:21.281Z,1.70
2023-05-04T08:18:22.471Z,1.70
2023-05-04T08:19:21.255Z,1.70
2023-05-04T08:20:23.727Z,1.30
2023-05-04T08:21:21.268Z,2.40
2023-05-04T08:22:21.239Z,2.30
2023-05-04T08:23:22.850Z,2.40
2023-05-04T08:24:22.261Z,2.00
2023-05-04T08:25:21.208Z,2.20
2023-05-04T08:26:21.884Z,1.60
2023-05-04T08:27:22.038Z,1.70
2023-05-04T08:28:21.193Z,1.80
2023-05-04T08:29:22.810Z,1.70
2023-05-04T08:30:22.253Z,1.90
2023-05-04T08:31:21.959Z,2.20
2023-05-04T08:32:21.964Z,1.80
2023-05-04T08:33:21.934Z,2.50
2023-05-04T08:34:21.124Z,2.40
2023-05-04T08:35:21.994Z,1.60
2023-05-04T08:36:21.956Z,2.00
2023-05-04T08:37:22.496Z,1.80
2023-05-04T08:38:21.913Z,1.30
2023-05-04T08:39:21.084Z,1.60
2023-05-04T08:40:21.839Z,1.60
2023-05-04T08:41:21.087Z,1.60
2023-05-04T08:42:22.044Z,1.50
2023-05-04T08:43:21.859Z,2.40
2023-05-04T08:44:21.892Z,1.80
2023-05-04T08:45:21.313Z,1.90
2023-05-04T08:46:21.931Z,1.80
2023-05-04T08:47:21.024Z,5.90
2023-05-04T08:48:21.845Z,2.70
2023-05-04T08:49:21.667Z,2.70
2023-05-04T08:50:21.839Z,1.80
2023-05-04T08:51:21.666Z,1.60
2023-05-04T08:52:21.516Z,1.30
2023-05-04T08:53:21.772Z,1.50
2023-05-04T08:54:21.415Z,1.60
2023-05-04T08:55:22.447Z,1.90
2023-05-04T08:56:22.134Z,3.10
2023-05-04T08:57:21.237Z,1.40
2023-05-04T08:58:21.523Z,1.40
2023-05-04T08:59:20.887Z,1.80
2023-05-04T09:00:22.732Z,1.40
2023-05-04T09:01:22.213Z,1.60
2023-05-04T09:02:21.622Z,1.50
2023-05-04T09:03:21.761Z,1.40
2023-05-04T09:04:22.579Z,2.00
2023-05-04T09:05:20.767Z,1.40
2023-05-04T09:06:22.563Z,1.40
2023-05-04T09:07:21.993Z,1.60
2023-05-04T09:08:21.561Z,1.10
2023-05-04T09:09:21.352Z,1.60
2023-05-04T09:10:21.659Z,1.30
2023-05-04T09:11:21.371Z,1.00
2023-05-04T09:12:21.623Z,1.80
2023-05-04T09:13:21.342Z,2.30
2023-05-04T09:14:21.619Z,1.40
2023-05-04T09:15:20.688Z,1.20
2023-05-04T09:16:22.313Z,1.60
2023-05-04T09:17:21.363Z,1.80
2023-05-04T09:18:21.827Z,1.80
2023-05-04T09:19:21.323Z,1.60
2023-05-04T09:20:21.427Z,1.70
2023-05-04T09:21:21.342Z,2.60
2023-05-04T09:22:21.400Z,1.60
2023-05-04T09:23:21.402Z,1.80
2023-05-04T09:24:21.231Z,1.10
2023-05-04T09:25:21.352Z,1.70
2023-05-04T09:26:21.212Z,1.90
2023-05-04T09:27:21.343Z,1.80
2023-05-04T09:28:21.285Z,2.00
2023-05-04T09:29:21.336Z,1.20
2023-05-04T09:30:20.565Z,1.50
2023-05-04T09:31:21.353Z,1.80
2023-05-04T09:32:20.550Z,1.60
2023-05-04T09:33:21.389Z,1.30
2023-05-04T09:34:21.377Z,1.00
2023-05-04T09:35:32.130Z,1.30
2023-05-04T09:36:21.316Z,1.40
2023-05-04T09:37:21.105Z,1.40
2023-05-04T09:38:21.402Z,1.30
2023-05-04T09:39:21.039Z,1.20
2023-05-04T09:40:20.441Z,1.80
2023-05-04T09:41:21.104Z,2.00
2023-05-04T09:42:21.221Z,1.30
2023-05-04T09:43:21.152Z,1.50
2023-05-04T09:44:21.392Z,1.40
2023-05-04T09:45:21.068Z,1.70
2023-05-04T09:46:21.347Z,1.50
2023-05-04T09:47:21.153Z,3.30
2023-05-04T09:48:21.144Z,1.50
2023-05-04T09:49:21.148Z,1.20
2023-05-04T09:50:21.373Z,1.60
2023-05-04T09:51:21.290Z,1.40
2023-05-04T09:52:20.293Z,1.10
2023-05-04T09:53:21.130Z,1.20
2023-05-04T09:54:20.889Z,1.70
2023-05-04T09:55:21.687Z,1.30
2023-05-04T09:56:20.863Z,1.40
2023-05-04T09:57:21.093Z,1.40
2023-05-04T09:58:20.234Z,1.20
2023-05-04T09:59:21.133Z,1.60
2023-05-04T10:00:20.377Z,1.30
2023-05-04T10:01:20.222Z,1.50
2023-05-04T10:02:23.016Z,1.30
2023-05-04T10:03:21.226Z,1.70
2023-05-04T10:04:21.191Z,1.60
2023-05-04T10:05:20.996Z,1.70
2023-05-04T10:06:20.971Z,1.70
2023-05-04T10:07:21.031Z,1.70
2023-05-04T10:08:20.121Z,1.50
2023-05-04T10:09:21.934Z,2.90
2023-05-04T10:10:20.933Z,1.80
2023-05-04T10:11:20.980Z,1.20
2023-05-04T10:12:20.987Z,1.30
2023-05-04T10:13:20.750Z,1.80
2023-05-04T10:14:20.050Z,1.50
2023-05-04T10:15:22.132Z,1.20
2023-05-04T10:16:21.617Z,1.50
2023-05-04T10:17:20.738Z,1.30
2023-05-04T10:18:20.829Z,1.50
2023-05-04T10:19:20.750Z,1.30
2023-05-04T10:20:20.826Z,1.30
2023-05-04T10:21:19.959Z,1.20
2023-05-04T10:22:20.641Z,1.70
2023-05-04T10:23:22.610Z,1.30
2023-05-04T10:24:20.547Z,1.20
2023-05-04T10:25:20.759Z,2.10
2023-05-04T10:26:20.589Z,1.00
2023-05-04T10:27:20.739Z,1.50
2023-05-04T10:28:22.278Z,1.90
2023-05-04T10:29:22.649Z,1.30
2023-05-04T10:30:20.606Z,1.00
2023-05-04T10:31:20.844Z,1.60
2023-05-04T10:32:19.946Z,1.40
2023-05-04T10:33:21.570Z,1.60
2023-05-04T10:34:21.317Z,1.60
2023-05-04T10:35:20.659Z,1.30
2023-05-04T10:36:20.647Z,1.40
2023-05-04T10:37:21.176Z,1.40
2023-05-04T10:38:21.454Z,1.60
2023-05-04T10:39:20.441Z,1.50
2023-05-04T10:40:20.582Z,1.40
2023-05-04T10:41:20.411Z,1.60
2023-05-04T10:42:20.572Z,1.50
2023-05-04T10:43:20.450Z,1.80
2023-05-04T10:44:20.701Z,1.30
2023-05-04T10:45:20.391Z,1.50
2023-05-04T10:46:20.600Z,1.60
2023-05-04T10:47:20.466Z,1.30
2023-05-04T10:48:20.598Z,1.30
2023-05-04T10:49:20.480Z,1.40
2023-05-04T10:50:20.570Z,1.30
2023-05-04T10:51:20.374Z,1.40
2023-05-04T10:52:20.541Z,1.20
2023-05-04T10:53:20.380Z,2.00
2023-05-04T10:54:20.251Z,1.60
2023-05-04T10:55:20.513Z,1.50
2023-05-04T10:56:20.307Z,1.60
2023-05-04T10:57:20.401Z,1.80
2023-05-04T10:58:20.329Z,1.30
2023-05-04T10:59:20.546Z,1.40
2023-05-04T11:00:20.458Z,1.90
2023-05-04T11:01:20.417Z,1.50
2023-05-04T11:02:20.336Z,1.60
2023-05-04T11:03:20.372Z,1.10
2023-05-04T11:04:20.221Z,1.00
2023-05-04T11:05:20.702Z,1.40
2023-05-04T11:06:23.323Z,1.50
2023-05-04T11:07:20.496Z,1.70
2023-05-04T11:08:20.239Z,1.50
2023-05-04T11:09:20.061Z,1.30
2023-05-04T11:10:20.306Z,1.20
2023-05-04T11:11:19.542Z,1.30
2023-05-04T11:12:20.300Z,1.80
2023-05-04T11:13:20.289Z,1.20
2023-05-04T11:14:20.207Z,1.20
2023-05-04T11:15:20.106Z,1.60
2023-05-04T11:16:20.299Z,1.30
2023-05-04T11:17:28.040Z,1.00
2023-05-04T11:18:20.824Z,1.20
2023-05-04T11:19:20.081Z,1.90
2023-05-04T11:20:20.144Z,1.90
2023-05-04T11:21:20.150Z,0.90
2023-05-04T11:22:20.307Z,0.90
2023-05-04T11:23:20.142Z,1.40
2023-05-04T11:24:19.960Z,1.80
2023-05-04T11:25:20.270Z,1.30
2023-05-04T11:26:19.934Z,1.20
2023-05-04T11:27:20.117Z,1.20
2023-05-04T11:28:19.985Z,1.40
2023-05-04T11:29:20.142Z,1.10
2023-05-04T11:30:20.001Z,1.80
2023-05-04T11:31:20.107Z,1.60
2023-05-04T11:32:19.909Z,1.20
2023-05-04T11:33:20.062Z,1.10
2023-05-04T11:34:19.920Z,1.20
2023-05-04T11:35:20.042Z,1.30
2023-05-04T11:36:19.250Z,1.40
2023-05-04T11:37:19.982Z,1.30
2023-05-04T11:38:20.063Z,1.40
2023-05-04T11:39:19.770Z,1.70
2023-05-04T11:40:19.937Z,1.50
2023-05-04T11:41:19.789Z,1.20
2023-05-04T11:42:20.002Z,1.40
2023-05-04T11:43:19.834Z,1.40
2023-05-04T11:44:19.900Z,2.20
2023-05-04T11:45:19.800Z,1.50
2023-05-04T11:46:20.032Z,1.70
2023-05-04T11:47:20.151Z,1.50
2023-05-04T11:48:19.898Z,1.40
2023-05-04T11:49:19.761Z,1.80
2023-05-04T11:50:19.866Z,1.30
2023-05-04T11:51:19.051Z,1.30
2023-05-04T11:52:19.865Z,1.70
2023-05-04T11:53:18.989Z,1.90
2023-05-04T11:54:20.256Z,1.30
2023-05-04T11:55:19.921Z,1.40
2023-05-04T11:56:19.721Z,1.40
2023-05-04T11:57:18.950Z,1.20
2023-05-04T11:58:18.971Z,1.60
2023-05-04T11:59:19.746Z,1.30
2023-05-04T12:00:18.921Z,1.80
2023-05-04T12:01:19.781Z,2.00
2023-05-04T12:02:19.649Z,2.50
2023-05-04T12:03:19.806Z,1.30
2023-05-04T12:04:18.977Z,1.50
2023-05-04T12:05:20.645Z,1.40
2023-05-04T12:06:19.950Z,1.20
2023-05-04T12:07:19.784Z,1.20
2023-05-04T12:08:19.683Z,1.10
2023-05-04T12:09:19.451Z,1.70
2023-05-04T12:10:19.588Z,1.50
2023-05-04T12:11:19.464Z,1.50
2023-05-04T12:12:19.759Z,2.00
2023-05-04T12:13:19.586Z,1.40
2023-05-04T12:14:18.802Z,1.30
2023-05-04T12:15:19.410Z,4.90
2023-05-04T12:16:19.684Z,1.60
2023-05-04T12:17:19.449Z,1.40
2023-05-04T12:18:19.045Z,1.50
2023-05-04T12:19:19.429Z,1.70
2023-05-04T12:20:18.746Z,1.30
2023-05-04T12:21:19.476Z,3.00
2023-05-04T12:22:19.560Z,2.50
2023-05-04T12:23:19.405Z,1.20
2023-05-04T12:24:19.385Z,2.00
2023-05-04T12:25:19.472Z,1.40
2023-05-04T12:26:19.766Z,1.20
2023-05-04T12:27:19.590Z,1.40
2023-05-04T12:28:19.281Z,1.10
2023-05-04T12:29:18.661Z,1.20
2023-05-04T12:30:19.391Z,1.40
2023-05-04T12:31:19.464Z,1.60
2023-05-04T12:32:19.351Z,1.40
2023-05-04T12:33:19.420Z,2.50
2023-05-04T12:34:19.290Z,2.70
2023-05-04T12:35:19.423Z,0.80
2023-05-04T12:36:19.400Z,1.60
2023-05-04T12:37:19.342Z,1.20
2023-05-04T12:38:19.318Z,1.20
2023-05-04T12:39:19.122Z,1.10
2023-05-04T12:40:28.367Z,1.10
2023-05-04T12:41:19.119Z,1.90
2023-05-04T12:42:19.379Z,1.20
2023-05-04T12:43:20.749Z,1.20
2023-05-04T12:44:18.509Z,1.20
2023-05-04T12:45:19.171Z,1.60
2023-05-04T12:46:19.257Z,1.40
2023-05-04T12:47:19.164Z,1.50
2023-05-04T12:48:19.230Z,1.50
2023-05-04T12:49:19.158Z,1.40
2023-05-04T12:50:19.209Z,1.10
2023-05-04T12:51:19.144Z,1.30
2023-05-04T12:52:19.214Z,1.10
2023-05-04T12:53:19.233Z,1.20
2023-05-04T12:54:18.987Z,1.20
2023-05-04T12:55:19.252Z,1.80
2023-05-04T12:56:19.061Z,1.50
2023-05-04T12:57:19.176Z,1.50
2023-05-04T12:58:18.952Z,1.60
2023-05-04T12:59:19.177Z,1.00
2023-05-04T13:00:18.930Z,1.50
2023-05-04T13:01:18.321Z,2.10
2023-05-04T13:02:19.890Z,1.50
2023-05-04T13:03:19.164Z,1.50
2023-05-04T13:04:18.230Z,1.50
2023-05-04T13:05:19.956Z,1.30
2023-05-04T13:06:19.303Z,1.10
2023-05-04T13:07:18.222Z,1.20
2023-05-04T13:08:19.719Z,1.70
2023-05-04T13:09:18.772Z,1.50
2023-05-04T13:10:18.932Z,1.60
2023-05-04T13:11:18.250Z,0.80
2023-05-04T13:12:19.075Z,1.10
2023-05-04T13:13:18.913Z,1.30
2023-05-04T13:14:18.973Z,1.50
2023-05-04T13:15:18.959Z,1.20
2023-05-04T13:16:18.940Z,1.50
2023-05-04T13:17:18.874Z,1.50
2023-05-04T13:18:18.972Z,1.20